createdAt,value
2022-10-23T00:01:13.110Z,1.90
2022-10-23T00:03:39.627Z,1.60
2022-10-23T00:06:06.246Z,1.83
2022-10-23T00:08:32.826Z,2.00
2022-10-23T00:10:59.376Z,1.70
2022-10-23T00:13:25.857Z,1.70
2022-10-23T00:18:23.651Z,2.13
2022-10-23T00:20:50.138Z,1.88
2022-10-23T00:23:17.158Z,2.20
2022-10-23T00:25:43.700Z,2.00
2022-10-23T00:28:10.768Z,1.73
2022-10-23T00:30:37.250Z,1.70
2022-10-23T00:33:03.766Z,1.60
2022-10-23T00:35:30.271Z,1.67
2022-10-23T00:37:56.699Z,2.00
2022-10-23T00:40:23.139Z,1.67
2022-10-23T00:42:49.529Z,2.15
2022-10-23T00:45:22.832Z,1.85
2022-10-23T00:47:50.091Z,1.70
2022-10-23T00:50:17.365Z,1.60
2022-10-23T00:52:50.585Z,1.52
2022-10-23T00:55:19.270Z,1.73
2022-10-23T00:57:47.779Z,2.17
2022-10-23T01:00:25.078Z,1.40
2022-10-23T01:02:51.940Z,2.10
2022-10-23T01:05:22.510Z,2.53
2022-10-23T01:07:54.596Z,1.60
2022-10-23T01:10:50.444Z,1.83
2022-10-23T01:13:27.176Z,1.70
2022-10-23T01:15:57.759Z,1.70
2022-10-23T01:18:40.738Z,1.63
2022-10-23T01:21:16.960Z,1.52
2022-10-23T01:24:05.065Z,1.50
2022-10-23T01:26:46.747Z,1.50
2022-10-23T01:29:25.271Z,1.80
2022-10-23T01:32:01.045Z,1.48
2022-10-23T01:34:54.896Z,1.73
2022-10-23T01:37:49.119Z,1.55
2022-10-23T01:40:24.915Z,1.55
2022-10-23T01:42:56.733Z,1.58
2022-10-23T01:45:38.889Z,1.80
2022-10-23T01:48:08.895Z,1.60
2022-10-23T01:50:36.877Z,1.60
2022-10-23T01:53:04.606Z,1.80
2022-10-23T01:55:32.576Z,1.30
2022-10-23T01:58:01.682Z,1.60
2022-10-23T02:00:28.625Z,1.67
2022-10-23T02:02:57.628Z,1.40
2022-10-23T02:05:27.263Z,1.63
2022-10-23T02:07:55.698Z,1.90
2022-10-23T02:10:25.536Z,1.77
2022-10-23T02:13:00.719Z,1.70
2022-10-23T02:15:38.560Z,1.73
2022-10-23T02:18:42.155Z,1.50
2022-10-23T02:21:23.237Z,1.60
2022-10-23T02:23:56.146Z,1.20
2022-10-23T02:26:25.700Z,1.77
2022-10-23T02:29:15.723Z,1.52
2022-10-23T02:31:42.373Z,1.80
2022-10-23T02:34:08.791Z,1.52
2022-10-23T02:36:35.682Z,1.30
2022-10-23T02:39:02.450Z,1.67
2022-10-23T02:41:51.651Z,1.63
2022-10-23T02:44:23.942Z,1.50
2022-10-23T02:47:07.172Z,1.77
2022-10-23T02:49:55.865Z,2.03
2022-10-23T02:52:49.761Z,1.80
2022-10-23T02:55:38.380Z,1.60
2022-10-23T02:58:10.536Z,1.83
2022-10-23T03:00:42.647Z,1.60
2022-10-23T03:03:17.242Z,1.50
2022-10-23T03:05:47.302Z,1.40
2022-10-23T03:08:14.505Z,1.60
2022-10-23T03:10:43.056Z,1.77
2022-10-23T03:13:11.023Z,1.70
2022-10-23T03:15:37.472Z,1.83
2022-10-23T03:18:03.956Z,1.70
2022-10-23T03:20:30.661Z,1.60
2022-10-23T03:22:57.054Z,1.30
2022-10-23T03:25:23.466Z,1.67
2022-10-23T03:27:49.913Z,1.45
2022-10-23T03:30:16.394Z,1.67
2022-10-23T03:32:43.111Z,1.52
2022-10-23T03:35:09.756Z,1.67
2022-10-23T03:37:37.737Z,1.65
2022-10-23T03:40:04.894Z,1.45
2022-10-23T03:42:31.327Z,1.50
2022-10-23T03:44:57.725Z,1.70
2022-10-23T03:47:24.139Z,1.60
2022-10-23T03:49:50.641Z,1.52
2022-10-23T03:52:17.063Z,1.77
2022-10-23T03:54:43.589Z,1.75
2022-10-23T03:57:10.072Z,1.75
2022-10-23T03:59:36.593Z,1.70
2022-10-23T04:02:03.259Z,2.00
2022-10-23T04:04:29.784Z,1.80
2022-10-23T04:06:56.210Z,1.23
2022-10-23T04:09:22.790Z,1.50
2022-10-23T04:11:49.270Z,1.40
2022-10-23T04:14:15.854Z,1.65
2022-10-23T04:16:42.336Z,1.60
2022-10-23T04:19:08.797Z,1.52
2022-10-23T04:21:35.396Z,1.40
2022-10-23T04:24:01.796Z,1.40
2022-10-23T04:26:28.272Z,1.70
2022-10-23T04:28:54.717Z,1.58
2022-10-23T04:31:21.316Z,1.50
2022-10-23T04:33:47.747Z,1.20
2022-10-23T04:36:14.233Z,1.52
2022-10-23T04:38:40.658Z,1.65
2022-10-23T04:41:07.158Z,1.60
2022-10-23T04:43:33.710Z,1.60
2022-10-23T04:46:00.581Z,1.60
2022-10-23T04:48:29.112Z,1.88
2022-10-23T04:51:00.802Z,1.20
2022-10-23T04:53:28.731Z,1.40
2022-10-23T04:55:57.871Z,1.33
2022-10-23T05:00:51.815Z,1.38
2022-10-23T05:03:19.239Z,1.23
2022-10-23T05:05:45.853Z,1.50
2022-10-23T05:08:15.569Z,1.50
2022-10-23T05:10:44.445Z,1.30
2022-10-23T05:13:11.027Z,1.50
2022-10-23T05:15:37.484Z,1.70
2022-10-23T05:18:28.835Z,1.25
2022-10-23T05:21:11.639Z,1.20
2022-10-23T05:23:40.767Z,1.30
2022-10-23T05:28:33.604Z,1.50
2022-10-23T05:31:03.331Z,1.58
2022-10-23T05:33:30.586Z,1.30
2022-10-23T05:35:58.598Z,1.35
2022-10-23T05:38:27.692Z,1.30
2022-10-23T05:43:20.579Z,1.45
2022-10-23T05:45:47.135Z,1.40
2022-10-23T05:48:33.484Z,1.30
2022-10-23T05:51:08.816Z,1.33
2022-10-23T05:53:37.429Z,1.25
2022-10-23T05:56:07.843Z,1.30
2022-10-23T05:58:34.792Z,1.83
2022-10-23T06:01:06.570Z,1.80
2022-10-23T06:03:33.641Z,1.42
2022-10-23T06:06:00.304Z,1.35
2022-10-23T06:08:26.756Z,1.27
2022-10-23T06:10:53.329Z,1.20
2022-10-23T06:13:19.833Z,1.40
2022-10-23T06:15:46.332Z,1.10
2022-10-23T06:18:12.847Z,1.60
2022-10-23T06:20:39.448Z,1.63
2022-10-23T06:23:06.704Z,1.30
2022-10-23T06:25:33.144Z,1.45
2022-10-23T06:27:59.826Z,1.50
2022-10-23T06:30:26.364Z,1.17
2022-10-23T06:32:53.813Z,1.40
2022-10-23T06:35:20.336Z,1.67
2022-10-23T06:37:46.771Z,1.13
2022-10-23T06:40:13.265Z,1.27
2022-10-23T06:42:39.828Z,2.70
2022-10-23T06:45:07.443Z,2.85
2022-10-23T06:47:33.958Z,2.03
2022-10-23T06:50:00.441Z,1.70
2022-10-23T06:52:45.784Z,1.83
2022-10-23T06:55:13.738Z,1.50
2022-10-23T06:57:40.466Z,2.33
2022-10-23T07:00:07.890Z,3.75
2022-10-23T07:02:34.331Z,6.15
2022-10-23T07:05:00.814Z,5.78
2022-10-23T07:07:29.780Z,4.22
2022-10-23T07:09:57.602Z,2.92
2022-10-23T07:12:24.313Z,2.50
2022-10-23T07:14:50.792Z,2.30
2022-10-23T07:17:17.209Z,2.17
2022-10-23T07:19:44.030Z,1.90
2022-10-23T07:22:13.279Z,2.40
2022-10-23T07:24:42.226Z,1.85
2022-10-23T07:27:08.699Z,1.90
2022-10-23T07:29:35.291Z,1.85
2022-10-23T07:32:01.840Z,1.90
2022-10-23T07:34:28.585Z,1.95
2022-10-23T07:36:56.783Z,1.48
2022-10-23T07:39:23.370Z,1.70
2022-10-23T07:41:49.825Z,1.90
2022-10-23T07:44:16.283Z,1.73
2022-10-23T07:46:42.747Z,1.40
2022-10-23T07:49:10.981Z,1.70
2022-10-23T07:51:37.525Z,1.60
2022-10-23T07:54:04.117Z,1.80
2022-10-23T07:56:31.401Z,1.95
2022-10-23T07:58:57.920Z,1.60
2022-10-23T08:01:37.091Z,1.20
2022-10-23T08:04:04.572Z,1.35
2022-10-23T08:06:31.275Z,1.30
2022-10-23T08:08:59.888Z,1.83
2022-10-23T08:11:31.038Z,1.73
2022-10-23T08:13:58.580Z,1.55
2022-10-23T08:16:25.772Z,1.30
2022-10-23T08:18:52.313Z,1.27
2022-10-23T08:21:19.306Z,1.35
2022-10-23T08:23:45.924Z,1.35
2022-10-23T08:26:12.580Z,1.20
2022-10-23T08:28:39.129Z,1.40
2022-10-23T08:31:15.073Z,1.30
2022-10-23T08:33:41.743Z,1.30
2022-10-23T08:36:23.310Z,1.30
2022-10-23T08:38:50.733Z,1.55
2022-10-23T08:41:31.825Z,1.50
2022-10-23T08:44:09.996Z,1.20
2022-10-23T08:46:42.567Z,1.23
2022-10-23T08:49:17.885Z,1.15
2022-10-23T08:51:50.486Z,1.23
2022-10-23T08:54:20.456Z,1.13
2022-10-23T08:56:52.129Z,1.13
2022-10-23T08:59:40.000Z,1.50
2022-10-23T09:02:24.482Z,1.30
2022-10-23T09:04:53.727Z,1.40
2022-10-23T09:07:48.089Z,1.40
2022-10-23T09:10:51.744Z,1.38
2022-10-23T09:14:03.638Z,1.10
2022-10-23T09:19:20.123Z,1.30
2022-10-23T09:21:49.957Z,1.20
2022-10-23T09:24:19.311Z,1.10
2022-10-23T09:26:49.830Z,1.02
2022-10-23T09:29:32.751Z,1.08
2022-10-23T09:32:01.019Z,1.30
2022-10-23T09:34:32.849Z,1.30
2022-10-23T09:37:02.584Z,1.27
2022-10-23T09:39:32.231Z,0.95
2022-10-23T09:41:59.594Z,1.10
2022-10-23T09:44:29.772Z,0.95
2022-10-23T09:47:08.268Z,1.20
2022-10-23T09:49:35.325Z,1.33
2022-10-23T09:52:01.973Z,1.08
2022-10-23T09:54:32.015Z,1.20
2022-10-23T09:57:04.968Z,1.20
2022-10-23T09:59:32.643Z,1.10
2022-10-23T10:02:03.941Z,1.50
2022-10-23T10:04:39.001Z,1.30
2022-10-23T10:09:34.312Z,1.08
2022-10-23T10:12:19.456Z,1.42
2022-10-23T10:14:54.827Z,1.20
2022-10-23T10:17:53.331Z,1.20
2022-10-23T10:20:25.713Z,0.93
2022-10-23T10:23:07.619Z,1.30
2022-10-23T10:26:04.800Z,1.20
2022-10-23T10:28:48.516Z,0.95
2022-10-23T10:31:41.976Z,0.90
2022-10-23T10:34:28.620Z,1.10
2022-10-23T10:36:58.544Z,1.25
2022-10-23T10:39:29.772Z,1.10
2022-10-23T10:42:11.297Z,1.10
2022-10-23T10:44:56.429Z,1.35
2022-10-23T10:47:33.266Z,0.93
2022-10-23T10:50:22.478Z,1.58
2022-10-23T10:53:01.769Z,1.10
2022-10-23T10:55:37.550Z,1.35
2022-10-23T10:58:15.716Z,1.00
2022-10-23T11:00:44.663Z,1.17
2022-10-23T11:03:26.267Z,1.20
2022-10-23T11:05:56.023Z,1.05
2022-10-23T11:08:49.980Z,1.60
2022-10-23T11:11:30.964Z,0.80
2022-10-23T11:13:57.774Z,1.23
2022-10-23T11:16:32.225Z,1.17
2022-10-23T11:19:22.020Z,0.95
2022-10-23T11:21:58.031Z,0.90
2022-10-23T11:24:38.918Z,1.30
2022-10-23T11:27:23.553Z,1.33
2022-10-23T11:30:14.929Z,1.15
2022-10-23T11:32:59.927Z,0.98
2022-10-23T11:35:54.772Z,1.10
2022-10-23T11:38:35.055Z,1.10
2022-10-23T11:41:16.281Z,1.10
2022-10-23T11:43:48.496Z,0.98
2022-10-23T11:46:24.632Z,1.00
2022-10-23T11:48:52.551Z,1.23
2022-10-23T11:51:34.483Z,1.10
2022-10-23T11:54:16.198Z,1.50
2022-10-23T11:57:10.257Z,1.77
2022-10-23T11:59:49.537Z,1.30
2022-10-23T12:02:43.343Z,1.52
2022-10-23T12:05:27.431Z,1.33
2022-10-23T12:08:00.176Z,1.48
2022-10-23T12:10:34.322Z,1.10
2022-10-23T12:13:05.737Z,1.30
2022-10-23T12:15:34.890Z,1.35
2022-10-23T12:18:15.264Z,1.33
2022-10-23T12:20:44.585Z,1.10
2022-10-23T12:23:25.920Z,1.25
2022-10-23T12:26:04.438Z,1.10
2022-10-23T12:28:42.057Z,1.20
2022-10-23T12:31:23.814Z,1.00
2022-10-23T12:33:53.078Z,1.20
2022-10-23T12:36:37.739Z,1.15
2022-10-23T12:39:37.618Z,1.17
2022-10-23T12:42:05.642Z,1.20
2022-10-23T12:44:32.447Z,1.08
2022-10-23T12:47:03.778Z,1.15
2022-10-23T12:49:33.574Z,1.20
2022-10-23T12:52:02.991Z,1.27
2022-10-23T12:54:38.387Z,1.10
2022-10-23T12:57:22.371Z,1.27
2022-10-23T12:59:51.454Z,1.25
2022-10-23T13:02:25.566Z,1.50
2022-10-23T13:04:54.486Z,1.10
2022-10-23T13:07:25.439Z,1.30
2022-10-23T13:09:53.093Z,1.20
2022-10-23T13:12:25.078Z,1.20
2022-10-23T13:15:03.285Z,1.30
2022-10-23T13:17:46.680Z,1.40
2022-10-23T13:20:27.133Z,1.50
2022-10-23T13:23:00.843Z,1.35
2022-10-23T13:25:36.138Z,1.48
2022-10-23T13:28:08.797Z,1.75
2022-10-23T13:30:39.468Z,1.58
2022-10-23T13:33:21.023Z,1.42
2022-10-23T13:36:01.279Z,1.50
2022-10-23T13:38:33.797Z,1.20
2022-10-23T13:41:02.623Z,1.30
2022-10-23T13:43:31.704Z,1.33
2022-10-23T13:45:59.736Z,1.42
2022-10-23T13:48:27.285Z,1.40
2022-10-23T13:50:54.490Z,1.33
2022-10-23T13:53:21.251Z,1.30
2022-10-23T13:55:53.708Z,1.25
2022-10-23T13:58:22.898Z,1.75
2022-10-23T14:00:50.966Z,1.20
2022-10-23T14:03:18.637Z,1.33
2022-10-23T14:05:45.164Z,1.73
2022-10-23T14:08:11.721Z,1.27
2022-10-23T14:10:38.265Z,1.33
2022-10-23T14:13:05.040Z,1.77
2022-10-23T14:15:31.684Z,1.20
2022-10-23T14:17:59.635Z,1.60
2022-10-23T14:20:28.842Z,1.35
2022-10-23T14:22:55.577Z,1.23
2022-10-23T14:25:23.138Z,1.27
2022-10-23T14:27:50.073Z,1.38
2022-10-23T14:30:16.850Z,1.40
2022-10-23T14:32:44.176Z,1.30
2022-10-23T14:35:11.001Z,1.50
2022-10-23T14:37:37.852Z,1.10
2022-10-23T14:40:05.287Z,1.50
2022-10-23T14:42:34.348Z,1.55
2022-10-23T14:45:02.666Z,1.75
2022-10-23T14:47:29.200Z,1.52
2022-10-23T14:49:56.305Z,1.27
2022-10-23T14:52:23.471Z,1.33
2022-10-23T14:54:53.508Z,1.58
2022-10-23T14:57:22.155Z,1.50
2022-10-23T14:59:49.967Z,1.30
2022-10-23T15:02:17.226Z,1.48
2022-10-23T15:04:43.943Z,1.75
2022-10-23T15:07:10.541Z,1.33
2022-10-23T15:09:37.457Z,1.55
2022-10-23T15:12:05.496Z,1.73
2022-10-23T15:14:32.294Z,1.50
2022-10-23T15:16:58.743Z,1.90
2022-10-23T15:19:25.732Z,1.60
2022-10-23T15:21:52.582Z,1.35
2022-10-23T15:24:20.946Z,1.38
2022-10-23T15:26:48.574Z,1.70
2022-10-23T15:29:15.622Z,1.77
2022-10-23T15:31:44.881Z,1.73
2022-10-23T15:34:23.513Z,1.83
2022-10-23T15:36:51.205Z,1.58
2022-10-23T15:39:21.964Z,1.52
2022-10-23T15:41:51.493Z,1.95
2022-10-23T15:44:20.807Z,1.88
2022-10-23T15:46:48.556Z,1.60
2022-10-23T15:49:15.749Z,2.10
2022-10-23T15:51:43.687Z,1.98
2022-10-23T15:54:19.208Z,1.70
2022-10-23T15:56:48.137Z,1.75
2022-10-23T16:01:42.314Z,2.05
2022-10-23T16:04:09.955Z,2.30
2022-10-23T16:06:36.664Z,2.28
2022-10-23T16:09:04.059Z,1.75
2022-10-23T16:11:34.652Z,2.28
2022-10-23T16:14:03.562Z,2.13
2022-10-23T16:16:30.825Z,1.98
2022-10-23T16:19:01.496Z,1.92
2022-10-23T16:21:31.063Z,1.80
2022-10-23T16:23:59.656Z,1.55
2022-10-23T16:26:27.312Z,2.03
2022-10-23T16:28:56.019Z,1.83
2022-10-23T16:31:23.909Z,1.90
2022-10-23T16:33:51.615Z,1.70
2022-10-23T16:36:19.336Z,1.50
2022-10-23T16:38:45.817Z,1.90
2022-10-23T16:41:12.418Z,1.83
2022-10-23T16:43:39.135Z,1.92
2022-10-23T16:46:07.562Z,2.35
2022-10-23T16:48:35.639Z,2.50
2022-10-23T16:51:07.399Z,2.55
2022-10-23T16:53:34.255Z,2.22
2022-10-23T16:56:02.721Z,1.90
2022-10-23T16:58:29.345Z,2.17
2022-10-23T17:01:10.831Z,2.13
2022-10-23T17:03:40.535Z,1.80
2022-10-23T17:06:11.221Z,2.67
2022-10-23T17:08:38.524Z,2.05
2022-10-23T17:11:11.789Z,2.08
2022-10-23T17:13:42.040Z,2.08
2022-10-23T17:16:14.569Z,1.92
2022-10-23T17:18:43.978Z,1.98
2022-10-23T17:21:15.177Z,2.10
2022-10-23T17:23:42.135Z,1.73
2022-10-23T17:26:13.352Z,1.98
2022-10-23T17:28:42.359Z,1.80
2022-10-23T17:31:27.389Z,1.90
2022-10-23T17:33:58.515Z,2.22
2022-10-23T17:36:26.763Z,2.20
2022-10-23T17:38:53.847Z,2.35
2022-10-23T17:41:22.383Z,1.88
2022-10-23T17:43:49.531Z,1.80
2022-10-23T17:46:16.990Z,1.70
2022-10-23T17:48:43.907Z,1.90
2022-10-23T17:51:12.216Z,1.80
2022-10-23T17:53:40.418Z,2.50
2022-10-23T17:56:10.114Z,2.30
2022-10-23T17:58:37.098Z,2.50
2022-10-23T18:01:12.736Z,2.17
2022-10-23T18:03:39.718Z,2.28
2022-10-23T18:06:12.663Z,2.30
2022-10-23T18:08:41.021Z,2.10
2022-10-23T18:11:13.861Z,2.58
2022-10-23T18:13:40.365Z,1.73
2022-10-23T18:16:11.422Z,1.90
2022-10-23T18:18:40.209Z,2.05
2022-10-23T18:21:08.334Z,1.70
2022-10-23T18:23:36.972Z,1.95
2022-10-23T18:26:04.874Z,2.30
2022-10-23T18:28:32.260Z,1.70
2022-10-23T18:30:58.678Z,2.05
2022-10-23T18:33:26.565Z,2.20
2022-10-23T18:35:53.161Z,2.08
2022-10-23T18:38:19.635Z,1.73
2022-10-23T18:40:46.181Z,1.88
2022-10-23T18:43:15.127Z,1.95
2022-10-23T18:45:42.552Z,1.70
2022-10-23T18:48:09.194Z,1.80
2022-10-23T18:50:37.276Z,1.70
2022-10-23T18:53:04.293Z,1.40
2022-10-23T18:55:31.303Z,1.60
2022-10-23T18:57:58.109Z,1.63
2022-10-23T19:00:25.024Z,1.10
2022-10-23T19:02:52.503Z,1.65
2022-10-23T19:05:19.587Z,1.60
2022-10-23T19:07:46.792Z,1.77
2022-10-23T19:10:17.910Z,1.77
2022-10-23T19:12:44.652Z,1.65
2022-10-23T19:15:11.382Z,1.60
2022-10-23T19:17:38.015Z,1.50
2022-10-23T19:20:16.809Z,1.40
2022-10-23T19:22:47.417Z,1.60
2022-10-23T19:25:18.077Z,1.80
2022-10-23T19:27:46.398Z,1.48
2022-10-23T19:30:19.314Z,1.70
2022-10-23T19:32:48.800Z,1.50
2022-10-23T19:35:17.340Z,1.35
2022-10-23T19:37:44.360Z,1.90
2022-10-23T19:40:12.947Z,1.60
2022-10-23T19:42:42.025Z,1.55
2022-10-23T19:45:11.552Z,1.52
2022-10-23T19:47:38.333Z,1.40
2022-10-23T19:50:06.296Z,1.80
2022-10-23T19:52:34.497Z,1.50
2022-10-23T19:55:03.142Z,1.80
2022-10-23T19:57:33.686Z,1.92
2022-10-23T20:00:01.178Z,1.70
2022-10-23T20:02:28.351Z,1.42
2022-10-23T20:04:55.059Z,1.50
2022-10-23T20:07:21.573Z,1.40
2022-10-23T20:09:48.648Z,2.00
2022-10-23T20:12:15.277Z,1.80
2022-10-23T20:14:41.779Z,1.52
2022-10-23T20:17:08.332Z,1.52
2022-10-23T20:19:34.997Z,1.73
2022-10-23T20:22:01.535Z,1.73
2022-10-23T20:24:28.100Z,1.55
2022-10-23T20:27:15.168Z,1.80
2022-10-23T20:29:42.711Z,1.80
2022-10-23T20:32:09.558Z,1.70
2022-10-23T20:34:36.100Z,1.77
2022-10-23T20:37:02.574Z,1.67
2022-10-23T20:39:29.746Z,1.58
2022-10-23T20:41:56.811Z,1.52
2022-10-23T20:44:24.614Z,1.85
2022-10-23T20:46:52.345Z,1.40
2022-10-23T20:49:19.521Z,1.63
2022-10-23T20:51:54.108Z,2.10
2022-10-23T20:54:23.930Z,1.52
2022-10-23T20:56:50.363Z,1.58
2022-10-23T20:59:19.095Z,1.52
2022-10-23T21:01:52.861Z,1.23
2022-10-23T21:04:22.034Z,1.33
2022-10-23T21:09:35.718Z,1.27
2022-10-23T21:12:02.158Z,1.45
2022-10-23T21:14:28.745Z,1.48
2022-10-23T21:16:55.226Z,1.20
2022-10-23T21:19:21.781Z,1.48
2022-10-23T21:21:48.684Z,1.38
2022-10-23T21:24:16.561Z,1.60
2022-10-23T21:26:44.123Z,1.75
2022-10-23T21:29:20.093Z,1.38
2022-10-23T21:31:58.766Z,1.50
2022-10-23T21:34:26.166Z,1.60
2022-10-23T21:39:40.904Z,1.70
2022-10-23T21:42:07.447Z,1.67
2022-10-23T21:44:33.897Z,1.70
2022-10-23T21:47:00.338Z,1.70
2022-10-23T21:49:26.881Z,1.77
2022-10-23T21:51:54.940Z,1.70
2022-10-23T21:54:22.056Z,1.70
2022-10-23T21:56:50.830Z,1.80
2022-10-23T21:59:20.640Z,2.00
2022-10-23T22:01:48.408Z,1.80
2022-10-23T22:04:17.316Z,1.77
2022-10-23T22:06:45.202Z,1.42
2022-10-23T22:09:14.217Z,1.20
2022-10-23T22:14:07.119Z,1.77
2022-10-23T22:16:33.668Z,1.73
2022-10-23T22:19:00.393Z,1.70
2022-10-23T22:21:28.763Z,1.98
2022-10-23T22:23:57.617Z,2.05
2022-10-23T22:26:37.239Z,2.00
2022-10-23T22:29:10.196Z,1.88
2022-10-23T22:31:38.115Z,1.88
2022-10-23T22:34:24.967Z,1.67
2022-10-23T22:36:56.338Z,2.50
2022-10-23T22:39:23.501Z,1.70
2022-10-23T22:41:50.360Z,1.75
2022-10-23T22:44:17.040Z,1.67
2022-10-23T22:46:43.898Z,2.10
2022-10-23T22:49:10.894Z,1.85
2022-10-23T22:51:39.581Z,2.00
2022-10-23T22:54:06.248Z,2.47
2022-10-23T22:56:33.088Z,1.80
2022-10-23T22:58:59.530Z,2.55
2022-10-23T23:01:35.653Z,2.25
2022-10-23T23:04:13.789Z,1.73
2022-10-23T23:06:48.676Z,1.83
2022-10-23T23:09:17.989Z,1.98
2022-10-23T23:11:51.225Z,2.00
2022-10-23T23:14:22.022Z,1.60
2022-10-23T23:16:50.533Z,1.92
2022-10-23T23:19:17.106Z,1.80
2022-10-23T23:21:43.524Z,1.98
2022-10-23T23:24:11.643Z,1.70
2022-10-23T23:26:38.150Z,2.15
2022-10-23T23:29:04.615Z,2.20
2022-10-23T23:31:31.378Z,1.98
2022-10-23T23:33:57.815Z,2.03
2022-10-23T23:36:45.932Z,1.90
2022-10-23T23:39:12.435Z,2.20
2022-10-23T23:41:39.285Z,1.73
2022-10-23T23:44:06.012Z,1.73
2022-10-23T23:46:32.566Z,2.10
2022-10-23T23:48:59.057Z,1.85
2022-10-23T23:51:26.173Z,1.88
2022-10-23T23:53:53.082Z,1.85
2022-10-23T23:56:19.825Z,1.90
2022-10-23T23:58:46.633Z,1.77
